createdAt,value
2019-04-09T00:01:14.500Z,13.20
2019-04-09T00:03:43.958Z,13.10
2019-04-09T00:06:12.732Z,13.10
2019-04-09T00:08:41.228Z,13.00
2019-04-09T00:11:09.687Z,13.00
2019-04-09T00:13:38.410Z,13.00
2019-04-09T00:16:07.004Z,13.00
2019-04-09T00:18:35.867Z,12.90
2019-04-09T00:21:06.018Z,12.90
2019-04-09T00:23:35.132Z,13.00
2019-04-09T00:26:03.843Z,12.90
2019-04-09T00:28:34.077Z,12.90
2019-04-09T00:31:03.136Z,12.90
2019-04-09T00:33:32.467Z,12.90
2019-04-09T00:36:01.374Z,13.00
2019-04-09T00:38:31.449Z,12.90
2019-04-09T00:40:59.948Z,12.90
2019-04-09T00:43:28.557Z,12.90
2019-04-09T00:45:57.048Z,12.80
2019-04-09T00:48:25.531Z,12.80
2019-04-09T00:50:54.091Z,12.80
2019-04-09T00:53:23.474Z,12.90
2019-04-09T00:55:52.336Z,12.90
2019-04-09T00:58:20.829Z,12.80
2019-04-09T01:00:57.244Z,12.80
2019-04-09T01:03:26.009Z,12.90
2019-04-09T01:05:54.597Z,12.90
2019-04-09T01:08:23.092Z,12.90
2019-04-09T01:10:51.696Z,12.80
2019-04-09T01:13:20.366Z,12.90
2019-04-09T01:15:49.275Z,12.80
2019-04-09T01:18:18.749Z,12.90
2019-04-09T01:20:47.956Z,12.80
2019-04-09T01:23:17.854Z,12.80
2019-04-09T01:25:48.980Z,12.80
2019-04-09T01:28:20.324Z,12.80
2019-04-09T01:30:53.071Z,12.90
2019-04-09T01:33:29.049Z,12.80
2019-04-09T01:35:59.857Z,12.80
2019-04-09T01:38:30.716Z,12.80
2019-04-09T01:41:10.796Z,12.70
2019-04-09T01:43:44.788Z,12.80
2019-04-09T01:46:15.359Z,12.80
2019-04-09T01:48:45.604Z,12.80
2019-04-09T01:51:33.136Z,12.90
2019-04-09T01:54:15.213Z,12.90
2019-04-09T01:56:45.340Z,12.90
2019-04-09T01:59:22.229Z,12.80
2019-04-09T02:01:52.827Z,12.80
2019-04-09T02:04:27.097Z,12.80
2019-04-09T02:07:06.039Z,12.80
2019-04-09T02:09:46.369Z,12.80
2019-04-09T02:12:33.107Z,12.80
2019-04-09T02:15:03.212Z,12.80
2019-04-09T02:17:49.616Z,12.70
2019-04-09T02:20:19.750Z,12.70
2019-04-09T02:22:53.368Z,12.70
2019-04-09T02:25:23.701Z,12.60
2019-04-09T02:28:08.959Z,12.60
2019-04-09T02:30:57.543Z,12.60
2019-04-09T02:33:36.328Z,12.60
2019-04-09T02:36:07.869Z,12.50
2019-04-09T02:38:38.749Z,12.50
2019-04-09T02:41:09.148Z,12.40
2019-04-09T02:43:48.247Z,12.40
2019-04-09T02:46:34.591Z,12.40
2019-04-09T02:49:04.725Z,12.30
2019-04-09T02:51:51.027Z,12.30
2019-04-09T02:54:37.855Z,12.30
2019-04-09T02:57:17.554Z,12.30
2019-04-09T02:59:51.047Z,12.30
2019-04-09T03:02:21.572Z,12.20
2019-04-09T03:05:07.163Z,12.20
2019-04-09T03:07:37.711Z,12.20
2019-04-09T03:10:18.303Z,12.20
2019-04-09T03:12:51.856Z,12.10
2019-04-09T03:15:31.767Z,12.10
2019-04-09T03:18:04.718Z,12.00
2019-04-09T03:20:40.895Z,11.90
2019-04-09T03:23:27.552Z,11.90
2019-04-09T03:25:57.727Z,11.90
2019-04-09T03:28:44.832Z,11.80
2019-04-09T03:31:20.248Z,11.90
2019-04-09T03:33:57.376Z,11.80
2019-04-09T03:36:45.673Z,11.80
2019-04-09T03:39:24.880Z,11.70
2019-04-09T03:42:07.971Z,11.70
2019-04-09T03:44:44.074Z,11.60
2019-04-09T03:47:23.234Z,11.60
2019-04-09T03:49:56.707Z,11.50
2019-04-09T03:52:33.426Z,11.50
2019-04-09T03:55:26.646Z,11.40
2019-04-09T03:58:14.003Z,11.40
2019-04-09T04:00:45.270Z,11.30
2019-04-09T04:03:18.291Z,11.40
2019-04-09T04:05:49.144Z,11.30
2019-04-09T04:08:35.898Z,11.30
2019-04-09T04:11:09.132Z,11.20
2019-04-09T04:13:48.535Z,11.20
2019-04-09T04:16:21.983Z,11.20
2019-04-09T04:18:54.794Z,11.20
2019-04-09T04:21:27.654Z,11.10
2019-04-09T04:24:09.321Z,11.10
2019-04-09T04:26:53.513Z,11.00
2019-04-09T04:29:42.584Z,11.00
2019-04-09T04:32:15.248Z,11.00
2019-04-09T04:34:48.481Z,10.90
2019-04-09T04:37:37.514Z,10.80
2019-04-09T04:40:10.702Z,10.70
2019-04-09T04:42:46.797Z,10.70
2019-04-09T04:45:22.927Z,10.70
2019-04-09T04:47:55.058Z,10.70
2019-04-09T04:50:43.915Z,10.70
2019-04-09T04:53:25.135Z,10.60
2019-04-09T04:55:57.736Z,10.50
2019-04-09T04:58:49.874Z,10.50
2019-04-09T05:01:22.019Z,10.50
2019-04-09T05:04:11.222Z,10.50
2019-04-09T05:06:55.367Z,10.40
2019-04-09T05:09:30.582Z,10.40
2019-04-09T05:12:13.188Z,10.30
2019-04-09T05:15:06.823Z,10.20
2019-04-09T05:17:38.413Z,10.20
2019-04-09T05:20:15.213Z,10.30
2019-04-09T05:22:54.792Z,10.30
2019-04-09T05:25:27.283Z,10.20
2019-04-09T05:28:06.773Z,10.10
2019-04-09T05:30:43.475Z,10.10
2019-04-09T05:33:22.772Z,10.00
2019-04-09T05:36:10.212Z,10.00
2019-04-09T05:38:50.090Z,10.10
2019-04-09T05:41:22.562Z,10.20
2019-04-09T05:44:01.358Z,10.20
2019-04-09T05:46:37.499Z,10.20
2019-04-09T05:49:15.957Z,10.10
2019-04-09T05:51:53.017Z,10.10
2019-04-09T05:54:41.952Z,10.10
2019-04-09T05:57:24.345Z,10.00
2019-04-09T06:00:12.348Z,10.00
2019-04-09T06:02:44.915Z,10.00
2019-04-09T06:05:17.026Z,9.90
2019-04-09T06:08:07.332Z,10.00
2019-04-09T06:10:38.905Z,9.90
2019-04-09T06:13:09.732Z,9.80
2019-04-09T06:15:41.540Z,9.80
2019-04-09T06:18:12.830Z,9.80
2019-04-09T06:20:45.069Z,9.80
2019-04-09T06:23:18.399Z,9.80
2019-04-09T06:25:49.488Z,9.90
2019-04-09T06:28:21.854Z,9.90
2019-04-09T06:30:52.201Z,9.90
2019-04-09T06:33:28.140Z,9.90
2019-04-09T06:36:10.540Z,9.90
2019-04-09T06:38:49.974Z,9.90
2019-04-09T06:41:23.551Z,9.90
2019-04-09T06:44:02.880Z,9.90
2019-04-09T06:46:48.411Z,9.90
2019-04-09T06:49:26.833Z,9.90
2019-04-09T06:52:06.834Z,10.00
2019-04-09T06:54:59.562Z,10.20
2019-04-09T06:57:48.584Z,10.40
2019-04-09T07:00:28.475Z,10.40
2019-04-09T07:03:18.246Z,10.50
2019-04-09T07:06:02.632Z,10.50
2019-04-09T07:08:37.732Z,10.40
2019-04-09T07:11:26.304Z,10.50
2019-04-09T07:14:08.758Z,10.50
2019-04-09T07:16:58.852Z,10.50
2019-04-09T07:19:49.382Z,10.50
2019-04-09T07:22:41.222Z,10.50
2019-04-09T07:25:21.890Z,10.50
2019-04-09T07:28:12.840Z,10.60
2019-04-09T07:30:53.935Z,10.50
2019-04-09T07:33:33.089Z,10.60
2019-04-09T07:36:11.305Z,10.50
2019-04-09T07:38:59.334Z,10.50
2019-04-09T07:41:41.450Z,10.50
2019-04-09T07:44:31.057Z,10.70
2019-04-09T07:47:08.287Z,10.70
2019-04-09T07:49:43.454Z,10.80
2019-04-09T07:52:22.315Z,10.80
2019-04-09T07:54:56.214Z,10.70
2019-04-09T07:57:33.107Z,10.80
2019-04-09T08:00:18.611Z,10.90
2019-04-09T08:02:46.533Z,11.00
2019-04-09T08:05:25.775Z,11.00
2019-04-09T08:08:05.635Z,11.10
2019-04-09T08:10:40.251Z,11.20
2019-04-09T08:13:19.566Z,11.30
2019-04-09T08:15:58.604Z,11.20
2019-04-09T08:18:31.336Z,11.20
2019-04-09T08:21:04.954Z,11.30
2019-04-09T08:23:56.803Z,11.30
2019-04-09T08:26:36.910Z,11.50
2019-04-09T08:29:07.157Z,11.70
2019-04-09T08:31:48.043Z,11.80
2019-04-09T08:34:17.178Z,11.90
2019-04-09T08:36:55.654Z,12.00
2019-04-09T08:39:35.270Z,12.10
2019-04-09T08:42:10.858Z,12.40
2019-04-09T08:44:48.761Z,12.70
2019-04-09T08:47:21.132Z,12.70
2019-04-09T08:50:03.329Z,12.90
2019-04-09T08:52:44.381Z,13.00
2019-04-09T08:55:17.856Z,13.20
2019-04-09T08:57:51.053Z,13.60
2019-04-09T09:01:07.356Z,13.70
2019-04-09T09:03:22.271Z,13.80
2019-04-09T09:05:57.591Z,14.00
2019-04-09T09:08:37.637Z,14.30
2019-04-09T09:11:15.614Z,14.60
2019-04-09T09:14:07.801Z,14.70
2019-04-09T09:16:41.552Z,14.60
2019-04-09T09:19:29.607Z,14.70
2019-04-09T09:22:01.124Z,14.90
2019-04-09T09:24:36.079Z,15.10
2019-04-09T09:27:10.877Z,15.10
2019-04-09T09:32:45.184Z,14.90
2019-04-09T09:35:33.780Z,14.80
2019-04-09T09:38:20.835Z,14.80
2019-04-09T09:41:10.530Z,15.00
2019-04-09T09:43:50.300Z,15.10
2019-04-09T09:46:23.189Z,15.00
2019-04-09T09:48:59.237Z,14.70
2019-04-09T09:51:32.811Z,14.60
2019-04-09T09:54:18.737Z,14.40
2019-04-09T09:56:54.148Z,14.50
2019-04-09T09:59:35.458Z,14.50
2019-04-09T10:02:10.093Z,14.50
2019-04-09T10:04:44.893Z,14.50
2019-04-09T10:07:41.081Z,14.40
2019-04-09T10:10:12.867Z,14.20
2019-04-09T10:13:02.578Z,14.50
2019-04-09T10:15:55.007Z,14.70
2019-04-09T10:18:57.170Z,14.80
2019-04-09T10:21:21.654Z,15.00
2019-04-09T10:24:13.370Z,15.10
2019-04-09T10:26:49.718Z,15.20
2019-04-09T10:29:35.158Z,15.30
2019-04-09T10:32:15.433Z,15.30
2019-04-09T10:35:07.080Z,15.60
2019-04-09T10:37:39.007Z,15.60
2019-04-09T10:40:14.752Z,15.70
2019-04-09T10:42:54.471Z,15.60
2019-04-09T10:45:43.199Z,15.90
2019-04-09T10:48:22.835Z,15.70
2019-04-09T10:50:56.267Z,15.70
2019-04-09T10:53:35.912Z,15.80
2019-04-09T10:56:38.855Z,15.80
2019-04-09T10:59:13.327Z,15.90
2019-04-09T11:01:55.076Z,15.90
2019-04-09T11:04:42.749Z,16.00
2019-04-09T11:07:31.773Z,16.10
2019-04-09T11:10:22.404Z,15.80
2019-04-09T11:13:08.087Z,15.60
2019-04-09T11:15:50.594Z,15.70
2019-04-09T11:18:44.075Z,15.90
2019-04-09T11:21:16.341Z,15.90
2019-04-09T11:23:55.101Z,16.00
2019-04-09T11:26:44.944Z,15.90
2019-04-09T11:29:16.457Z,16.10
2019-04-09T11:31:53.501Z,16.00
2019-04-09T11:34:53.743Z,16.10
2019-04-09T11:37:33.370Z,16.10
2019-04-09T11:40:21.363Z,16.00
2019-04-09T11:42:58.033Z,16.20
2019-04-09T11:45:31.514Z,16.30
2019-04-09T11:48:10.550Z,16.40
2019-04-09T11:50:43.754Z,16.40
2019-04-09T11:53:33.032Z,16.80
2019-04-09T11:56:24.883Z,17.00
2019-04-09T11:58:57.251Z,16.90
2019-04-09T12:01:59.481Z,17.10
2019-04-09T12:04:36.103Z,17.10
2019-04-09T12:07:18.490Z,17.10
2019-04-09T12:10:06.157Z,17.00
2019-04-09T12:12:49.776Z,17.20
2019-04-09T12:15:31.701Z,17.30
2019-04-09T12:18:21.857Z,17.00
2019-04-09T12:21:04.776Z,17.00
2019-04-09T12:23:39.317Z,17.10
2019-04-09T12:26:12.649Z,17.30
2019-04-09T12:29:06.922Z,17.50
2019-04-09T12:31:37.262Z,17.60
2019-04-09T12:34:24.328Z,17.70
2019-04-09T12:36:58.237Z,17.30
2019-04-09T12:39:31.756Z,17.60
2019-04-09T12:42:56.827Z,17.60
2019-04-09T12:45:31.540Z,17.60
2019-04-09T12:48:16.688Z,17.60
2019-04-09T12:50:50.440Z,17.70
2019-04-09T12:53:26.029Z,17.70
2019-04-09T12:56:09.045Z,17.50
2019-04-09T12:58:48.492Z,17.50
2019-04-09T13:01:37.320Z,17.60
2019-04-09T13:04:26.612Z,17.80
2019-04-09T13:07:02.576Z,17.90
2019-04-09T13:09:51.316Z,17.90
2019-04-09T13:12:40.253Z,18.00
2019-04-09T13:15:30.885Z,18.20
2019-04-09T13:18:13.222Z,18.10
2019-04-09T13:20:46.429Z,18.30
2019-04-09T13:23:20.814Z,18.50
2019-04-09T13:25:53.040Z,18.50
2019-04-09T13:28:36.377Z,18.60
2019-04-09T13:31:15.047Z,18.60
2019-04-09T13:33:51.121Z,18.50
2019-04-09T13:36:30.761Z,18.50
2019-04-09T13:39:21.588Z,18.50
2019-04-09T13:42:09.355Z,18.70
2019-04-09T13:44:57.646Z,18.90
2019-04-09T13:47:40.222Z,18.90
2019-04-09T13:50:19.337Z,18.90
2019-04-09T13:52:51.947Z,18.80
2019-04-09T13:55:26.829Z,18.90
2019-04-09T13:57:58.224Z,18.90
2019-04-09T14:00:31.166Z,18.80
2019-04-09T14:03:29.745Z,19.00
2019-04-09T14:05:54.739Z,19.10
2019-04-09T14:08:25.540Z,18.90
2019-04-09T14:10:58.608Z,19.00
2019-04-09T14:13:30.109Z,18.80
2019-04-09T14:16:02.719Z,18.70
2019-04-09T14:18:34.579Z,18.50
2019-04-09T14:21:06.475Z,18.40
2019-04-09T14:23:38.239Z,18.60
2019-04-09T14:26:09.710Z,18.70
2019-04-09T14:28:40.894Z,18.60
2019-04-09T14:31:12.191Z,18.20
2019-04-09T14:33:43.627Z,18.20
2019-04-09T14:36:16.341Z,18.20
2019-04-09T14:38:48.245Z,18.10
2019-04-09T14:41:22.725Z,18.00
2019-04-09T14:43:55.244Z,17.90
2019-04-09T14:46:27.120Z,17.80
2019-04-09T14:48:58.305Z,17.70
2019-04-09T14:51:27.760Z,17.70
2019-04-09T14:53:59.678Z,17.40
2019-04-09T14:56:32.055Z,17.40
2019-04-09T14:59:03.989Z,17.30
2019-04-09T15:01:34.963Z,17.30
2019-04-09T15:04:05.772Z,17.50
2019-04-09T15:06:37.172Z,17.40
2019-04-09T15:09:10.971Z,17.50
2019-04-09T15:11:41.192Z,17.60
2019-04-09T15:14:13.410Z,17.50
2019-04-09T15:16:44.585Z,17.50
2019-04-09T15:19:16.920Z,17.40
2019-04-09T15:22:02.017Z,17.30
2019-04-09T15:24:34.426Z,17.30
2019-04-09T15:27:07.372Z,17.30
2019-04-09T15:29:37.697Z,17.40
2019-04-09T15:32:10.433Z,17.40
2019-04-09T15:34:41.390Z,17.30
2019-04-09T15:37:12.667Z,17.20
2019-04-09T15:39:47.241Z,17.20
2019-04-09T15:42:19.136Z,17.10
2019-04-09T15:44:50.824Z,17.10
2019-04-09T15:47:22.827Z,17.10
2019-04-09T15:49:54.710Z,17.00
2019-04-09T15:52:26.555Z,17.00
2019-04-09T15:54:59.117Z,17.10
2019-04-09T15:57:29.948Z,17.00
2019-04-09T16:00:03.231Z,16.90
2019-04-09T16:02:34.272Z,16.80
2019-04-09T16:05:06.608Z,16.60
2019-04-09T16:07:39.526Z,16.50
2019-04-09T16:10:12.239Z,16.40
2019-04-09T16:12:43.252Z,16.40
2019-04-09T16:15:16.856Z,16.30
2019-04-09T16:17:48.505Z,16.20
2019-04-09T16:20:20.480Z,16.10
2019-04-09T16:22:52.932Z,16.10
2019-04-09T16:25:23.540Z,16.10
2019-04-09T16:27:57.032Z,16.10
2019-04-09T16:30:29.506Z,15.90
2019-04-09T16:33:09.855Z,15.80
2019-04-09T16:35:33.284Z,15.70
2019-04-09T16:38:04.978Z,15.80
2019-04-09T16:40:37.162Z,15.80
2019-04-09T16:43:08.654Z,15.80
2019-04-09T16:45:40.038Z,15.80
2019-04-09T16:48:10.557Z,15.70
2019-04-09T16:50:42.197Z,15.70
2019-04-09T16:53:13.201Z,15.70
2019-04-09T16:55:45.205Z,15.70
2019-04-09T16:58:17.860Z,15.60
2019-04-09T17:00:50.293Z,15.70
2019-04-09T17:03:35.707Z,15.60
2019-04-09T17:05:56.165Z,15.70
2019-04-09T17:08:27.115Z,15.60
2019-04-09T17:10:58.635Z,15.60
2019-04-09T17:13:29.585Z,15.60
2019-04-09T17:16:02.202Z,15.60
2019-04-09T17:18:33.873Z,15.60
2019-04-09T17:21:06.437Z,15.70
2019-04-09T17:23:39.237Z,15.50
2019-04-09T17:26:09.552Z,15.40
2019-04-09T17:28:40.922Z,15.40
2019-04-09T17:31:12.409Z,15.30
2019-04-09T17:33:41.840Z,15.20
2019-04-09T17:36:13.487Z,15.20
2019-04-09T17:38:44.358Z,15.20
2019-04-09T17:41:14.850Z,15.20
2019-04-09T17:43:46.887Z,15.20
2019-04-09T17:46:17.519Z,15.00
2019-04-09T17:48:48.756Z,14.90
2019-04-09T17:51:20.126Z,14.90
2019-04-09T17:53:51.452Z,14.90
2019-04-09T17:56:22.211Z,14.80
2019-04-09T17:58:53.554Z,14.70
2019-04-09T18:01:25.200Z,14.70
2019-04-09T18:03:55.884Z,14.70
2019-04-09T18:06:28.061Z,14.70
2019-04-09T18:08:59.378Z,14.70
2019-04-09T18:11:29.718Z,14.60
2019-04-09T18:14:02.392Z,14.50
2019-04-09T18:16:34.263Z,14.50
2019-04-09T18:19:09.937Z,14.50
2019-04-09T18:21:40.664Z,14.40
2019-04-09T18:24:09.681Z,14.40
2019-04-09T18:26:40.942Z,14.40
2019-04-09T18:29:13.379Z,14.30
2019-04-09T18:31:45.613Z,14.20
2019-04-09T18:34:16.936Z,14.20
2019-04-09T18:36:48.331Z,14.10
2019-04-09T18:39:20.547Z,14.10
2019-04-09T18:41:52.717Z,14.10
2019-04-09T18:44:24.592Z,14.10
2019-04-09T18:46:56.140Z,14.10
2019-04-09T18:49:25.397Z,14.00
2019-04-09T18:52:16.138Z,14.00
2019-04-09T18:54:46.782Z,13.90
2019-04-09T18:57:18.025Z,13.80
2019-04-09T18:59:48.368Z,13.90
2019-04-09T19:02:18.617Z,13.80
2019-04-09T19:05:03.822Z,13.80
2019-04-09T19:07:26.309Z,13.70
2019-04-09T19:09:57.251Z,13.60
2019-04-09T19:12:28.861Z,13.60
2019-04-09T19:15:00.110Z,13.60
2019-04-09T19:17:32.579Z,13.50
2019-04-09T19:20:04.301Z,13.50
2019-04-09T19:22:35.961Z,13.40
2019-04-09T19:25:08.562Z,13.40
2019-04-09T19:27:39.588Z,13.30
2019-04-09T19:30:14.302Z,13.40
2019-04-09T19:32:45.358Z,13.30
2019-04-09T19:35:23.693Z,13.30
2019-04-09T19:37:49.539Z,13.20
2019-04-09T19:40:23.063Z,13.20
2019-04-09T19:42:54.371Z,13.10
2019-04-09T19:45:26.703Z,13.20
2019-04-09T19:47:59.949Z,13.10
2019-04-09T19:50:32.052Z,13.20
2019-04-09T19:53:04.102Z,13.10
2019-04-09T19:55:36.140Z,13.10
2019-04-09T19:58:08.400Z,13.00
2019-04-09T20:00:39.663Z,13.00
2019-04-09T20:03:09.643Z,12.90
2019-04-09T20:05:42.410Z,13.00
2019-04-09T20:08:13.033Z,12.90
2019-04-09T20:10:45.136Z,12.80
2019-04-09T20:13:16.010Z,12.70
2019-04-09T20:15:46.505Z,12.70
2019-04-09T20:18:17.716Z,12.60
2019-04-09T20:20:49.920Z,12.60
2019-04-09T20:23:23.601Z,12.60
2019-04-09T20:25:55.839Z,12.60
2019-04-09T20:28:27.759Z,12.50
2019-04-09T20:31:00.677Z,12.50
2019-04-09T20:33:32.723Z,12.50
2019-04-09T20:36:04.120Z,12.50
2019-04-09T20:38:35.268Z,12.40
2019-04-09T20:41:05.895Z,12.40
2019-04-09T20:43:36.470Z,12.30
2019-04-09T20:46:07.335Z,12.30
2019-04-09T20:48:36.799Z,12.20
2019-04-09T20:51:08.480Z,12.30
2019-04-09T20:53:40.334Z,12.20
2019-04-09T20:56:12.880Z,12.20
2019-04-09T20:58:44.748Z,12.20
2019-04-09T21:01:15.294Z,12.20
2019-04-09T21:03:53.650Z,12.10
2019-04-09T21:06:18.243Z,12.10
2019-04-09T21:08:47.369Z,12.10
2019-04-09T21:11:16.207Z,12.00
2019-04-09T21:13:44.917Z,12.00
2019-04-09T21:16:14.021Z,11.90
2019-04-09T21:18:47.801Z,11.90
2019-04-09T21:21:16.264Z,11.80
2019-04-09T21:23:44.796Z,11.80
2019-04-09T21:26:13.732Z,11.80
2019-04-09T21:28:43.499Z,11.70
2019-04-09T21:31:13.256Z,11.70
2019-04-09T21:33:42.467Z,11.70
2019-04-09T21:36:14.153Z,11.60
2019-04-09T21:38:42.285Z,11.60
2019-04-09T21:41:10.871Z,11.60
2019-04-09T21:43:40.224Z,11.60
2019-04-09T21:46:09.581Z,11.50
2019-04-09T21:48:38.164Z,11.60
2019-04-09T21:51:06.977Z,11.50
2019-04-09T21:53:37.442Z,11.40
2019-04-09T21:56:06.043Z,11.40
2019-04-09T21:58:34.572Z,11.30
2019-04-09T22:01:07.041Z,11.30
2019-04-09T22:03:36.710Z,11.20
2019-04-09T22:06:18.657Z,11.20
2019-04-09T22:08:36.198Z,11.20
2019-04-09T22:11:05.092Z,11.20
2019-04-09T22:13:33.744Z,11.20
2019-04-09T22:16:02.392Z,11.10
2019-04-09T22:18:31.950Z,11.00
2019-04-09T22:21:01.560Z,11.00
2019-04-09T22:23:41.235Z,10.90
2019-04-09T22:26:01.196Z,10.80
2019-04-09T22:28:29.696Z,10.80
2019-04-09T22:30:59.187Z,10.80
2019-04-09T22:33:28.191Z,10.70
2019-04-09T22:35:57.782Z,10.70
2019-04-09T22:38:26.866Z,10.70
2019-04-09T22:40:55.424Z,10.60
2019-04-09T22:43:23.951Z,10.60
2019-04-09T22:45:52.519Z,10.50
2019-04-09T22:48:21.939Z,10.50
2019-04-09T22:50:50.757Z,10.50
2019-04-09T22:53:19.315Z,10.50
2019-04-09T22:55:48.827Z,10.40
2019-04-09T22:58:17.753Z,10.50
2019-04-09T23:00:51.196Z,10.40
2019-04-09T23:03:34.429Z,10.30
2019-04-09T23:06:09.083Z,10.30
2019-04-09T23:08:39.633Z,10.30
2019-04-09T23:11:21.700Z,10.30
2019-04-09T23:13:50.328Z,10.20
2019-04-09T23:16:19.176Z,10.20
2019-04-09T23:18:49.663Z,10.10
2019-04-09T23:21:19.143Z,10.00
2019-04-09T23:23:48.109Z,10.00
2019-04-09T23:26:17.379Z,10.00
2019-04-09T23:28:46.187Z,9.90
2019-04-09T23:31:14.704Z,9.90
2019-04-09T23:33:43.267Z,9.80
2019-04-09T23:36:11.971Z,9.80
2019-04-09T23:38:41.183Z,9.90
2019-04-09T23:41:12.159Z,9.80
2019-04-09T23:43:41.781Z,9.80
2019-04-09T23:46:10.905Z,9.70
2019-04-09T23:48:40.205Z,9.60
2019-04-09T23:51:09.254Z,9.60
2019-04-09T23:53:38.067Z,9.60
2019-04-09T23:56:07.436Z,9.50
2019-04-09T23:58:37.538Z,9.50
